createdAt,value
2018-11-21T00:00:36.603Z,0.70
2018-11-21T00:03:05.392Z,0.80
2018-11-21T00:05:34.688Z,0.80
2018-11-21T00:08:03.927Z,0.80
2018-11-21T00:10:32.971Z,0.80
2018-11-21T00:13:02.469Z,0.80
2018-11-21T00:15:31.409Z,0.80
2018-11-21T00:18:00.080Z,0.80
2018-11-21T00:20:29.117Z,0.80
2018-11-21T00:22:58.131Z,0.90
2018-11-21T00:25:27.068Z,0.90
2018-11-21T00:27:56.081Z,0.90
2018-11-21T00:30:25.054Z,0.90
2018-11-21T00:32:54.094Z,0.90
2018-11-21T00:35:22.755Z,0.90
2018-11-21T00:37:51.951Z,0.90
2018-11-21T00:40:20.610Z,0.90
2018-11-21T00:42:49.575Z,0.90
2018-11-21T00:45:18.575Z,0.90
2018-11-21T00:47:47.792Z,0.90
2018-11-21T00:50:16.784Z,0.90
2018-11-21T00:52:46.091Z,0.90
2018-11-21T00:55:15.347Z,1.00
2018-11-21T00:57:44.352Z,0.90
2018-11-21T01:00:13.647Z,0.90
2018-11-21T01:02:42.872Z,0.90
2018-11-21T01:05:12.103Z,0.90
2018-11-21T01:07:41.382Z,0.80
2018-11-21T01:10:10.042Z,0.80
2018-11-21T01:12:39.240Z,0.90
2018-11-21T01:15:08.244Z,0.90
2018-11-21T01:17:36.931Z,0.90
2018-11-21T01:20:06.898Z,0.90
2018-11-21T01:22:35.602Z,0.90
2018-11-21T01:25:04.820Z,0.90
2018-11-21T01:27:34.042Z,0.90
2018-11-21T01:30:03.328Z,0.90
2018-11-21T01:32:32.005Z,0.90
2018-11-21T01:35:00.924Z,0.90
2018-11-21T01:37:30.183Z,0.90
2018-11-21T01:39:59.217Z,0.90
2018-11-21T01:42:28.234Z,0.90
2018-11-21T01:44:56.887Z,0.90
2018-11-21T01:47:25.925Z,0.90
2018-11-21T01:49:55.443Z,0.90
2018-11-21T01:52:24.547Z,0.90
2018-11-21T01:54:53.283Z,0.90
2018-11-21T01:57:22.750Z,0.90
2018-11-21T01:59:51.422Z,0.90
2018-11-21T02:02:20.704Z,0.90
2018-11-21T02:04:50.197Z,0.90
2018-11-21T02:07:19.399Z,0.80
2018-11-21T02:09:48.342Z,0.80
2018-11-21T02:12:17.599Z,0.80
2018-11-21T02:14:46.531Z,0.90
2018-11-21T02:17:16.095Z,0.90
2018-11-21T02:19:45.044Z,0.90
2018-11-21T02:22:13.727Z,0.90
2018-11-21T02:24:43.135Z,0.90
2018-11-21T02:27:12.120Z,0.90
2018-11-21T02:29:41.381Z,0.90
2018-11-21T02:32:10.905Z,0.80
2018-11-21T02:34:40.965Z,0.90
2018-11-21T02:37:09.657Z,0.90
2018-11-21T02:39:38.868Z,0.80
2018-11-21T02:42:08.446Z,0.80
2018-11-21T02:44:37.680Z,0.80
2018-11-21T02:47:06.678Z,0.80
2018-11-21T02:49:35.699Z,0.80
2018-11-21T02:52:04.396Z,0.80
2018-11-21T02:54:33.739Z,0.90
2018-11-21T02:57:35.167Z,0.80
2018-11-21T03:00:09.458Z,0.80
2018-11-21T03:02:38.748Z,0.70
2018-11-21T03:05:07.702Z,0.70
2018-11-21T03:07:37.244Z,0.70
2018-11-21T03:10:06.536Z,0.60
2018-11-21T03:12:35.892Z,0.60
2018-11-21T03:15:04.593Z,0.70
2018-11-21T03:17:34.234Z,0.70
2018-11-21T03:20:03.242Z,0.70
2018-11-21T03:22:32.321Z,0.70
2018-11-21T03:25:01.902Z,0.70
2018-11-21T03:27:31.070Z,0.70
2018-11-21T03:29:59.838Z,0.70
2018-11-21T03:32:28.772Z,0.70
2018-11-21T03:34:58.072Z,0.60
2018-11-21T03:37:27.321Z,0.70
2018-11-21T03:39:56.069Z,0.70
2018-11-21T03:42:25.809Z,0.70
2018-11-21T03:44:54.717Z,0.70
2018-11-21T03:47:23.396Z,0.70
2018-11-21T03:49:52.654Z,0.70
2018-11-21T03:52:21.659Z,0.70
2018-11-21T03:54:50.635Z,0.60
2018-11-21T03:57:19.564Z,0.70
2018-11-21T03:59:48.225Z,0.60
2018-11-21T04:02:17.246Z,0.60
2018-11-21T04:04:45.920Z,0.60
2018-11-21T04:07:15.185Z,0.60
2018-11-21T04:09:44.222Z,0.60
2018-11-21T04:12:13.136Z,0.60
2018-11-21T04:14:42.176Z,0.60
2018-11-21T04:17:10.954Z,0.60
2018-11-21T04:19:39.894Z,0.60
2018-11-21T04:22:09.173Z,0.50
2018-11-21T04:24:37.857Z,0.50
2018-11-21T04:27:06.862Z,0.50
2018-11-21T04:29:36.105Z,0.60
2018-11-21T04:32:05.078Z,0.50
2018-11-21T04:34:34.085Z,0.50
2018-11-21T04:37:03.076Z,0.50
2018-11-21T04:39:31.762Z,0.50
2018-11-21T04:42:00.757Z,0.50
2018-11-21T04:44:29.777Z,0.50
2018-11-21T04:46:59.067Z,0.50
2018-11-21T04:49:28.089Z,0.50
2018-11-21T04:51:57.359Z,0.50
2018-11-21T04:54:26.356Z,0.50
2018-11-21T04:56:55.026Z,0.60
2018-11-21T04:59:24.107Z,0.60
2018-11-21T05:01:53.076Z,0.60
2018-11-21T05:04:22.085Z,0.60
2018-11-21T05:06:51.025Z,0.70
2018-11-21T05:09:20.838Z,0.60
2018-11-21T05:11:49.564Z,0.60
2018-11-21T05:14:18.805Z,0.60
2018-11-21T05:16:47.554Z,0.60
2018-11-21T05:19:16.509Z,0.60
2018-11-21T05:21:45.449Z,0.60
2018-11-21T05:24:14.388Z,0.60
2018-11-21T05:26:43.708Z,0.60
2018-11-21T05:29:12.913Z,0.60
2018-11-21T05:31:42.027Z,0.60
2018-11-21T05:34:10.958Z,0.60
2018-11-21T05:36:40.554Z,0.60
2018-11-21T05:39:11.234Z,0.60
2018-11-21T05:41:40.517Z,0.60
2018-11-21T05:44:09.820Z,0.60
2018-11-21T05:46:38.842Z,0.60
2018-11-21T05:49:08.102Z,0.60
2018-11-21T05:51:38.165Z,0.60
2018-11-21T05:54:06.842Z,0.60
2018-11-21T05:56:36.044Z,0.70
2018-11-21T05:59:05.460Z,0.60
2018-11-21T06:01:34.489Z,0.60
2018-11-21T06:04:03.489Z,0.60
2018-11-21T06:06:32.171Z,0.70
2018-11-21T06:09:02.270Z,0.70
2018-11-21T06:11:31.419Z,0.70
2018-11-21T06:14:00.606Z,0.70
2018-11-21T06:16:29.552Z,0.70
2018-11-21T06:18:58.318Z,0.80
2018-11-21T06:21:27.336Z,0.70
2018-11-21T06:23:56.716Z,0.80
2018-11-21T06:26:25.718Z,0.80
2018-11-21T06:28:54.655Z,0.90
2018-11-21T06:31:24.234Z,0.80
2018-11-21T06:33:53.250Z,0.80
2018-11-21T06:36:22.529Z,0.80
2018-11-21T06:38:51.218Z,0.70
2018-11-21T06:41:20.578Z,0.70
2018-11-21T06:43:50.114Z,0.60
2018-11-21T06:46:19.143Z,0.60
2018-11-21T06:48:48.126Z,0.70
2018-11-21T06:51:17.432Z,0.70
2018-11-21T06:53:46.717Z,0.70
2018-11-21T06:56:15.642Z,0.70
2018-11-21T06:58:44.590Z,0.70
2018-11-21T07:01:14.368Z,0.70
2018-11-21T07:03:44.348Z,0.70
2018-11-21T07:06:13.221Z,0.70
2018-11-21T07:08:42.207Z,0.80
2018-11-21T07:11:11.207Z,0.80
2018-11-21T07:13:40.101Z,0.80
2018-11-21T07:16:09.294Z,0.80
2018-11-21T07:18:38.631Z,0.80
2018-11-21T07:21:07.567Z,0.80
2018-11-21T07:23:36.561Z,0.80
2018-11-21T07:26:06.551Z,0.80
2018-11-21T07:28:35.545Z,0.90
2018-11-21T07:31:04.741Z,0.80
2018-11-21T07:33:34.182Z,0.80
2018-11-21T07:36:02.853Z,0.80
2018-11-21T07:38:31.849Z,0.80
2018-11-21T07:41:00.906Z,0.70
2018-11-21T07:43:30.476Z,0.80
2018-11-21T07:46:00.219Z,0.90
2018-11-21T07:48:30.212Z,0.90
2018-11-21T07:51:02.267Z,1.00
2018-11-21T07:53:28.420Z,1.00
2018-11-21T07:55:57.096Z,1.00
2018-11-21T07:58:26.761Z,1.00
2018-11-21T08:01:24.755Z,1.00
2018-11-21T08:03:55.464Z,1.00
2018-11-21T08:06:37.173Z,1.00
2018-11-21T08:09:25.870Z,1.10
2018-11-21T08:12:20.933Z,1.10
2018-11-21T08:15:08.130Z,1.10
2018-11-21T08:17:45.577Z,1.00
2018-11-21T08:20:29.993Z,0.90
2018-11-21T08:23:24.212Z,1.00
2018-11-21T08:26:11.756Z,1.00
2018-11-21T08:28:40.449Z,1.00
2018-11-21T08:31:10.545Z,1.00
2018-11-21T08:33:39.208Z,1.00
2018-11-21T08:36:07.918Z,1.00
2018-11-21T08:38:37.093Z,1.00
2018-11-21T08:41:05.766Z,1.10
2018-11-21T08:43:35.311Z,1.10
2018-11-21T08:46:04.347Z,1.00
2018-11-21T08:48:33.866Z,0.90
2018-11-21T08:51:03.636Z,0.90
2018-11-21T08:53:32.301Z,0.90
2018-11-21T08:56:01.338Z,0.80
2018-11-21T08:58:30.570Z,0.80
2018-11-21T09:00:59.603Z,0.80
2018-11-21T09:03:28.910Z,0.80
2018-11-21T09:05:57.579Z,0.80
2018-11-21T09:08:26.804Z,0.80
2018-11-21T09:10:55.773Z,0.80
2018-11-21T09:13:25.113Z,0.90
2018-11-21T09:15:53.786Z,0.90
2018-11-21T09:18:23.540Z,0.90
2018-11-21T09:20:52.216Z,0.90
2018-11-21T09:23:21.256Z,0.90
2018-11-21T09:25:49.974Z,0.90
2018-11-21T09:28:19.206Z,0.90
2018-11-21T09:30:48.439Z,0.90
2018-11-21T09:33:17.357Z,1.00
2018-11-21T09:35:46.239Z,0.90
2018-11-21T09:38:15.214Z,0.90
2018-11-21T09:40:44.186Z,1.00
2018-11-21T09:43:13.147Z,1.00
2018-11-21T09:45:42.060Z,0.90
2018-11-21T09:48:11.254Z,1.00
2018-11-21T09:50:40.436Z,0.90
2018-11-21T09:53:09.443Z,0.90
2018-11-21T09:55:40.505Z,1.00
2018-11-21T09:58:07.312Z,0.90
2018-11-21T10:01:12.809Z,0.90
2018-11-21T10:03:42.162Z,0.80
2018-11-21T10:06:14.057Z,0.80
2018-11-21T10:08:47.383Z,0.80
2018-11-21T10:11:16.998Z,0.70
2018-11-21T10:13:45.901Z,0.70
2018-11-21T10:16:14.586Z,0.70
2018-11-21T10:18:44.935Z,0.80
2018-11-21T10:21:15.418Z,0.80
2018-11-21T10:23:45.204Z,0.80
2018-11-21T10:26:13.661Z,0.80
2018-11-21T10:28:43.103Z,0.80
2018-11-21T10:31:12.063Z,0.70
2018-11-21T10:33:41.408Z,0.70
2018-11-21T10:36:10.384Z,0.70
2018-11-21T10:38:39.348Z,0.70
2018-11-21T10:41:08.358Z,0.70
2018-11-21T10:43:37.995Z,0.80
2018-11-21T10:46:07.024Z,0.80
2018-11-21T10:48:35.961Z,0.80
2018-11-21T10:51:04.786Z,0.80
2018-11-21T10:53:34.441Z,0.80
2018-11-21T10:56:03.399Z,0.90
2018-11-21T10:58:32.072Z,0.80
2018-11-21T11:01:18.927Z,0.90
2018-11-21T11:04:15.585Z,0.80
2018-11-21T11:07:15.782Z,0.90
2018-11-21T11:10:02.502Z,1.00
2018-11-21T11:12:48.213Z,1.00
2018-11-21T11:15:33.257Z,1.00
2018-11-21T11:18:12.201Z,1.00
2018-11-21T11:21:06.133Z,0.90
2018-11-21T11:23:52.821Z,0.90
2018-11-21T11:26:48.897Z,0.90
2018-11-21T11:29:35.497Z,0.90
2018-11-21T11:32:16.338Z,1.00
2018-11-21T11:34:59.402Z,1.00
2018-11-21T11:37:59.688Z,0.90
2018-11-21T11:40:46.233Z,0.80
2018-11-21T11:43:24.456Z,0.80
2018-11-21T11:46:09.491Z,0.80
2018-11-21T11:48:57.983Z,0.80
2018-11-21T11:51:44.787Z,0.80
2018-11-21T11:54:21.957Z,0.80
2018-11-21T11:57:16.063Z,0.80
2018-11-21T12:00:03.384Z,0.90
2018-11-21T12:03:00.458Z,0.90
2018-11-21T12:05:51.257Z,0.90
2018-11-21T12:08:45.258Z,1.00
2018-11-21T12:11:32.227Z,1.00
2018-11-21T12:14:13.896Z,0.90
2018-11-21T12:17:01.891Z,0.90
2018-11-21T12:19:55.780Z,1.00
2018-11-21T12:22:46.876Z,1.00
2018-11-21T12:25:37.853Z,1.00
2018-11-21T12:28:34.222Z,1.10
2018-11-21T12:31:25.305Z,1.00
2018-11-21T12:34:10.759Z,1.00
2018-11-21T12:37:01.456Z,0.90
2018-11-21T12:39:37.206Z,0.90
2018-11-21T12:42:23.908Z,1.00
2018-11-21T12:45:10.116Z,0.90
2018-11-21T12:47:57.004Z,0.90
2018-11-21T12:50:46.273Z,0.90
2018-11-21T12:53:27.022Z,0.90
2018-11-21T12:56:14.172Z,1.00
2018-11-21T12:59:10.939Z,1.00
2018-11-21T13:02:01.995Z,1.00
2018-11-21T13:04:48.292Z,1.00
2018-11-21T13:07:23.091Z,1.00
2018-11-21T13:10:15.795Z,1.10
2018-11-21T13:12:53.218Z,1.10
2018-11-21T13:15:43.249Z,1.10
2018-11-21T13:18:25.219Z,1.10
2018-11-21T13:21:08.079Z,1.00
2018-11-21T13:23:49.730Z,1.10
2018-11-21T13:26:36.577Z,1.00
2018-11-21T13:29:33.764Z,1.10
2018-11-21T13:32:20.152Z,1.20
2018-11-21T13:35:02.639Z,1.20
2018-11-21T13:37:57.245Z,1.20
2018-11-21T13:41:03.009Z,1.20
2018-11-21T13:43:41.170Z,1.10
2018-11-21T13:46:27.812Z,1.10
2018-11-21T13:49:15.174Z,1.10
2018-11-21T13:52:03.077Z,1.10
2018-11-21T13:54:49.288Z,1.10
2018-11-21T13:57:19.170Z,1.10
2018-11-21T13:59:48.097Z,1.10
2018-11-21T14:02:17.333Z,1.10
2018-11-21T14:04:46.338Z,1.10
2018-11-21T14:07:15.036Z,1.10
2018-11-21T14:09:44.001Z,1.10
2018-11-21T14:12:12.998Z,1.10
2018-11-21T14:14:41.908Z,1.10
2018-11-21T14:17:11.160Z,1.00
2018-11-21T14:19:40.375Z,1.00
2018-11-21T14:22:09.057Z,1.00
2018-11-21T14:24:37.732Z,1.00
2018-11-21T14:27:06.454Z,1.00
2018-11-21T14:29:35.437Z,1.10
2018-11-21T14:32:04.540Z,1.00
2018-11-21T14:34:33.803Z,1.10
2018-11-21T14:37:03.058Z,1.00
2018-11-21T14:39:32.025Z,1.00
2018-11-21T14:42:00.958Z,1.00
2018-11-21T14:44:29.998Z,1.10
2018-11-21T14:46:59.285Z,1.00
2018-11-21T14:49:27.980Z,1.00
2018-11-21T14:51:57.391Z,1.00
2018-11-21T14:54:26.686Z,1.00
2018-11-21T14:56:55.855Z,1.10
2018-11-21T14:59:24.578Z,1.10
2018-11-21T15:01:53.576Z,1.10
2018-11-21T15:04:22.562Z,1.10
2018-11-21T15:06:51.541Z,1.10
2018-11-21T15:09:20.269Z,1.10
2018-11-21T15:11:49.584Z,1.10
2018-11-21T15:14:18.530Z,1.00
2018-11-21T15:16:47.196Z,1.10
2018-11-21T15:19:16.217Z,1.10
2018-11-21T15:21:45.501Z,1.10
2018-11-21T15:24:14.497Z,1.10
2018-11-21T15:26:43.487Z,1.10
2018-11-21T15:29:12.670Z,1.10
2018-11-21T15:31:41.398Z,1.10
2018-11-21T15:34:10.717Z,1.20
2018-11-21T15:36:39.702Z,1.20
2018-11-21T15:39:09.501Z,1.10
2018-11-21T15:41:38.591Z,1.10
2018-11-21T15:44:07.265Z,1.10
2018-11-21T15:46:36.197Z,1.10
2018-11-21T15:49:05.541Z,1.20
2018-11-21T15:51:34.492Z,1.20
2018-11-21T15:54:03.236Z,1.20
2018-11-21T15:56:32.204Z,1.20
2018-11-21T15:59:01.176Z,1.10
2018-11-21T16:01:30.093Z,1.20
2018-11-21T16:03:59.368Z,1.20
2018-11-21T16:06:28.250Z,1.20
2018-11-21T16:08:57.246Z,1.20
2018-11-21T16:11:26.124Z,1.20
2018-11-21T16:13:55.125Z,1.20
2018-11-21T16:16:23.935Z,1.20
2018-11-21T16:18:52.941Z,1.30
2018-11-21T16:21:21.616Z,1.30
2018-11-21T16:23:50.880Z,1.30
2018-11-21T16:26:19.619Z,1.30
2018-11-21T16:28:48.613Z,1.20
2018-11-21T16:31:17.674Z,1.20
2018-11-21T16:33:46.343Z,1.10
2018-11-21T16:36:15.388Z,1.20
2018-11-21T16:38:44.315Z,1.20
2018-11-21T16:41:13.311Z,1.20
2018-11-21T16:43:41.966Z,1.20
2018-11-21T16:46:11.208Z,1.20
2018-11-21T16:48:39.929Z,1.20
2018-11-21T16:51:08.959Z,1.10
2018-11-21T16:53:38.507Z,1.20
2018-11-21T16:56:07.809Z,1.10
2018-11-21T16:58:37.181Z,1.10
2018-11-21T17:01:05.882Z,1.10
2018-11-21T17:03:35.167Z,1.00
2018-11-21T17:06:03.921Z,1.00
2018-11-21T17:08:33.463Z,1.00
2018-11-21T17:11:02.824Z,1.00
2018-11-21T17:13:31.790Z,1.00
2018-11-21T17:16:00.477Z,1.00
2018-11-21T17:18:29.177Z,1.00
2018-11-21T17:20:58.138Z,1.00
2018-11-21T17:23:27.130Z,1.10
2018-11-21T17:25:56.154Z,1.10
2018-11-21T17:28:24.836Z,1.10
2018-11-21T17:30:54.092Z,1.10
2018-11-21T17:33:23.435Z,1.10
2018-11-21T17:35:52.403Z,1.10
2018-11-21T17:38:21.364Z,1.00
2018-11-21T17:40:50.691Z,1.00
2018-11-21T17:43:19.961Z,0.90
2018-11-21T17:45:49.011Z,0.90
2018-11-21T17:48:18.234Z,0.90
2018-11-21T17:50:47.199Z,0.90
2018-11-21T17:53:15.938Z,0.90
2018-11-21T17:55:44.947Z,1.00
2018-11-21T17:58:14.004Z,0.90
2018-11-21T18:00:42.689Z,0.90
2018-11-21T18:03:11.699Z,1.00
2018-11-21T18:05:41.290Z,1.00
2018-11-21T18:08:09.976Z,0.90
2018-11-21T18:10:40.543Z,0.90
2018-11-21T18:13:09.566Z,1.00
2018-11-21T18:15:38.614Z,0.90
2018-11-21T18:18:07.280Z,1.00
2018-11-21T18:20:36.245Z,1.00
2018-11-21T18:23:04.944Z,1.00
2018-11-21T18:25:44.438Z,0.90
2018-11-21T18:28:13.810Z,0.90
2018-11-21T18:30:42.751Z,0.90
2018-11-21T18:33:12.030Z,0.90
2018-11-21T18:35:40.401Z,0.90
2018-11-21T18:38:09.540Z,0.90
2018-11-21T18:40:39.297Z,0.90
2018-11-21T18:43:08.085Z,0.90
2018-11-21T18:45:41.224Z,0.90
2018-11-21T18:48:11.234Z,0.80
2018-11-21T18:50:40.227Z,0.80
2018-11-21T18:53:09.685Z,0.80
2018-11-21T18:55:40.703Z,0.80
2018-11-21T18:58:37.535Z,0.80
2018-11-21T19:01:06.494Z,0.80
2018-11-21T19:03:35.462Z,0.80
2018-11-21T19:06:04.487Z,0.80
2018-11-21T19:08:34.104Z,0.70
2018-11-21T19:11:03.313Z,0.80
2018-11-21T19:13:32.437Z,0.70
2018-11-21T19:16:01.408Z,0.70
2018-11-21T19:18:30.663Z,0.80
2018-11-21T19:21:00.397Z,0.70
2018-11-21T19:23:29.064Z,0.70
2018-11-21T19:25:57.739Z,0.70
2018-11-21T19:28:26.490Z,0.70
2018-11-21T19:30:55.683Z,0.80
2018-11-21T19:33:24.999Z,0.80
2018-11-21T19:35:54.202Z,0.80
2018-11-21T19:38:23.170Z,0.70
2018-11-21T19:40:51.854Z,0.80
2018-11-21T19:43:20.788Z,0.80
2018-11-21T19:45:49.790Z,0.80
2018-11-21T19:48:18.509Z,0.80
2018-11-21T19:50:47.566Z,0.80
2018-11-21T19:53:16.526Z,0.90
2018-11-21T19:55:45.219Z,0.90
2018-11-21T19:58:14.277Z,0.90
2018-11-21T20:00:43.441Z,0.80
2018-11-21T20:03:12.393Z,0.80
2018-11-21T20:05:41.419Z,0.80
2018-11-21T20:08:10.657Z,0.90
2018-11-21T20:10:39.344Z,0.90
2018-11-21T20:13:08.037Z,0.90
2018-11-21T20:15:37.012Z,0.90
2018-11-21T20:18:06.092Z,0.90
2018-11-21T20:20:35.587Z,0.90
2018-11-21T20:23:06.588Z,0.90
2018-11-21T20:25:33.786Z,0.90
2018-11-21T20:28:02.483Z,0.80
2018-11-21T20:30:33.488Z,0.90
2018-11-21T20:33:02.767Z,0.90
2018-11-21T20:35:31.983Z,0.80
2018-11-21T20:38:01.380Z,0.80
2018-11-21T20:40:32.222Z,0.80
2018-11-21T20:43:01.284Z,0.80
2018-11-21T20:45:30.427Z,0.70
2018-11-21T20:48:00.116Z,0.80
2018-11-21T20:50:29.053Z,0.80
2018-11-21T20:52:58.079Z,0.90
2018-11-21T20:55:28.735Z,0.80
2018-11-21T20:57:57.990Z,0.80
2018-11-21T21:00:28.163Z,0.80
2018-11-21T21:02:56.844Z,0.80
2018-11-21T21:05:26.456Z,0.80
2018-11-21T21:07:56.414Z,0.70
2018-11-21T21:10:30.100Z,0.80
2018-11-21T21:12:58.901Z,0.80
2018-11-21T21:15:27.559Z,0.80
2018-11-21T21:17:56.240Z,0.70
2018-11-21T21:20:26.862Z,0.80
2018-11-21T21:22:57.618Z,0.80
2018-11-21T21:25:28.018Z,0.80
2018-11-21T21:27:57.338Z,0.90
2018-11-21T21:30:27.857Z,0.90
2018-11-21T21:32:56.575Z,0.80
2018-11-21T21:35:26.440Z,0.70
2018-11-21T21:37:55.393Z,0.70
2018-11-21T21:40:24.583Z,0.70
2018-11-21T21:42:53.566Z,0.70
2018-11-21T21:45:24.051Z,0.70
2018-11-21T21:47:52.830Z,0.70
2018-11-21T21:50:23.779Z,0.70
2018-11-21T21:52:52.459Z,0.70
2018-11-21T21:55:22.373Z,0.60
2018-11-21T21:57:51.078Z,0.70
2018-11-21T22:00:23.946Z,0.70
2018-11-21T22:02:53.171Z,0.70
2018-11-21T22:05:22.174Z,0.60
2018-11-21T22:07:51.384Z,0.60
2018-11-21T22:10:20.835Z,0.60
2018-11-21T22:12:49.519Z,0.60
2018-11-21T22:15:28.347Z,0.70
2018-11-21T22:17:58.885Z,0.70
2018-11-21T22:20:27.859Z,0.80
2018-11-21T22:22:57.083Z,0.80
2018-11-21T22:25:26.160Z,0.80
2018-11-21T22:27:55.427Z,0.80
2018-11-21T22:30:24.466Z,0.80
2018-11-21T22:32:54.215Z,0.70
2018-11-21T22:35:25.090Z,0.80
2018-11-21T22:37:53.746Z,0.70
2018-11-21T22:40:23.182Z,0.60
2018-11-21T22:42:52.241Z,0.60
2018-11-21T22:45:21.924Z,0.60
2018-11-21T22:47:50.890Z,0.60
2018-11-21T22:50:23.388Z,0.70
2018-11-21T22:52:52.312Z,0.70
2018-11-21T22:55:21.745Z,0.70
2018-11-21T22:57:51.260Z,0.60
2018-11-21T23:00:22.483Z,0.60
2018-11-21T23:02:51.410Z,0.50
2018-11-21T23:05:20.415Z,0.50
2018-11-21T23:07:50.456Z,0.50
2018-11-21T23:10:26.757Z,0.50
2018-11-21T23:12:55.635Z,0.50
2018-11-21T23:15:24.598Z,0.50
2018-11-21T23:17:53.282Z,0.40
2018-11-21T23:20:21.946Z,0.50
2018-11-21T23:22:50.922Z,0.60
2018-11-21T23:25:20.474Z,0.60
2018-11-21T23:27:49.492Z,0.50
2018-11-21T23:30:19.362Z,0.50
2018-11-21T23:32:48.306Z,0.50
2018-11-21T23:35:18.313Z,0.50
2018-11-21T23:37:47.009Z,0.50
2018-11-21T23:40:16.853Z,0.50
2018-11-21T23:42:50.487Z,0.50
2018-11-21T23:45:19.468Z,0.50
2018-11-21T23:47:48.523Z,0.50
2018-11-21T23:50:18.422Z,0.50
2018-11-21T23:52:47.696Z,0.60
2018-11-21T23:55:19.990Z,0.60
2018-11-21T23:57:48.659Z,0.60
